• Join FlightAware (Why Join?)
  • Login
  • US Flag 
01:38AM EDT


 

Airport Tracker/Info


-or-


 

Live Flight TrackerFlight Track Log ✈ SWA536 ✈ 23-Apr-2012 ✈ KMDW - KBNA

Flight Track Log - Related Links

Times and Time Zones

All times are in EDT time to prevent confusion due to time zone crossing. See the SWA536 flight status page for this flight to view local times or setup timezone preferences in your user account.

Time Position Orientation Groundspeed Altitude Reporting Facility
EDT Latitude Longitude Course Direction KTS MPH feet Rate Location/Type
07:29PM 41.7626 -87.7552 351° North  Level FlightAware Approximate
07:30PM 41.6698 -87.7802 North  Level FlightAware Approximate
07:31PM 41.5772 -87.8132 North  Level FlightAware Approximate
07:32PM 41.4826 -87.8392 North  Level FlightAware Approximate
07:33PM 41.3882 -87.8667 10° North  Level FlightAware Approximate
07:34PM 41.2916 -87.8769 North  Level FlightAware Approximate
07:35PM 41.1949 -87.8833 North  Level FlightAware Approximate
07:36PM 41.0979 -87.8832 North  Level FlightAware Approximate
07:37PM 41.0010 -87.8789 North  Level FlightAware Approximate
07:37PM 41.8167 -87.7667 132° Southeast 163 188 2,700  Level Chicago TRACON
07:38PM 41.7833 -87.7167 198° South 239 275 4,600 2,700 Climbing Chicago TRACON
07:41PM 41.6019 -87.7978 180° South 289 333 11,600 2,820 Climbing Chicago Center
07:42PM 41.5042 -87.7972 174° South 357 411 14,400 2,520 Climbing Chicago Center
07:43PM 41.4081 -87.7831 174° South 372 428 16,700 2,760 Climbing Chicago Center
07:44PM 41.2911 -87.7664 174° South 402 463 20,000 2,760 Climbing Chicago Center
07:45PM 41.1697 -87.7500 175° South 421 484 22,300 2,400 Climbing Chicago Center
07:46PM 41.0425 -87.7339 174° South 447 514 24,800 2,460 Climbing Chicago Center
07:47PM 40.9108 -87.7153 174° South 464 534 27,300 2,400 Climbing Chicago Center
07:48PM 40.7750 -87.6967 174° South 486 559 29,600 1,800 Climbing Chicago Center
07:49PM 40.6372 -87.6781 174° South 492 566 31,000 1,620 Climbing Chicago Center
07:50PM 40.4931 -87.6572 176° South 511 588 32,900 900 Climbing Chicago Center
07:51PM 40.3183 -87.6408 173° South 499 574 33,000  Climbing Indianapolis Center
07:52PM 40.1772 -87.6192 174° South 499 574 33,000  Level Indianapolis Center
07:53PM 40.0319 -87.5997 174° South 508 585 33,000  Level Indianapolis Center
07:54PM 39.8969 -87.5811 174° South 513 590 33,000  Level Indianapolis Center
07:55PM 39.7517 -87.5619 174° South 518 596 33,000  Level Indianapolis Center
07:56PM 39.6147 -87.5433 174° South 513 590 33,000  Level Indianapolis Center
07:57PM 39.4736 -87.5247 174° South 513 590 33,000  Level Indianapolis Center
07:58PM 39.3344 -87.5064 174° South 513 590 33,000  Level Indianapolis Center
07:59PM 39.1953 -87.4878 176° South 513 590 33,000  Level Indianapolis Center
08:00PM 39.0728 -87.4758 174° South 507 583 33,000  Level Indianapolis Center
08:01PM 38.9314 -87.4575 174° South 507 583 33,000  Level Indianapolis Center
08:02PM 38.7925 -87.4392 174° South 507 583 33,000  Level Indianapolis Center
08:03PM 38.6533 -87.4211 174° South 507 583 33,000  Level Indianapolis Center
08:04PM 38.5142 -87.4031 175° South 507 583 33,000  Level Indianapolis Center
08:05PM 38.3769 -87.3878 175° South 507 583 33,000  Level Indianapolis Center
08:06PM 38.2356 -87.3725 174° South 507 583 33,000 -1,140 Level Indianapolis Center
08:08PM 37.8967 -87.3278 174° South 512 589 29,200 -1,920 Descending Memphis Center
08:09PM 37.7567 -87.3094 176° South 512 589 26,700 -2,520 Descending Memphis Center
08:10PM 37.6211 -87.2964 174° South 498 573 24,200 -2,460 Descending Memphis Center
08:11PM 37.4894 -87.2781 173° South 492 566 21,800 -2,100 Descending Memphis Center
08:12PM 37.3597 -87.2569 169° South 482 555 20,000 -900 Descending Memphis Center
08:13PM 37.2403 -87.2278 169° South 450 518 20,000 -660 Level Memphis Center
08:14PM 37.1228 -87.1986 168° South 440 506 18,700 -1,560 Descending Memphis Center
08:15PM 37.0222 -87.1714 169° South 426 490 16,900 -1,980 Descending Memphis Center
08:16PM 36.9131 -87.1447 159° South 409 471 14,800 -2,160 Descending Memphis Center
08:17PM 36.8119 -87.0969 154° Southeast 391 450 12,600 -1,920 Descending Memphis Center
08:18PM 36.7208 -87.0411 154° Southeast 372 428 11,000 -840 Descending Memphis Center
08:19PM 36.6297 -86.9853 153° Southeast 361 415 11,000  Level Memphis Center
08:20PM 36.5406 -86.9297 155° Southeast 361 415 11,000 -300 Level Memphis Center
08:21PM 36.4431 -86.8719 153° Southeast 356 410 10,400 -720 Descending Memphis Center
08:22PM 36.3561 -86.8164 154° Southeast 356 410 9,600 -1,020 Descending Memphis Center
08:23PM 36.2756 -86.7683 160° South 334 384 8,400 -1,260 Descending Memphis Center
08:24PM 36.2017 -86.7356 194° South 322 371 7,100 -1,200 Descending Memphis Center
08:25PM 36.1250 -86.7594 194° South 289 333 6,000 -900 Descending Memphis Center
08:26PM 36.0547 -86.7806 196° South 273 314 5,400 -960 Descending Memphis Center
08:27PM 35.9908 -86.8039 101° East 253 291 4,100 -1,200 Descending Memphis Center
08:28PM 35.9806 -86.7403 22° Northeast 123 142 3,000 -1,020 Descending Memphis Center
08:29PM 36.0258 -86.7178 17° North 107 123 2,100 -840 Descending Memphis Center
08:30PM 36.0650 -86.7031 17° North 121 139 1,400 -720 Descending Memphis Center
08:31PM 36.1022 -86.6886 230° Southwest 133 153 700 -720 Descending Memphis Center
08:39PM 35.5247 -87.5421 50° Northeast  Level FlightAware Approximate
08:40PM 35.5997 -87.4324 50° Northeast  Level FlightAware Approximate
08:41PM 35.6746 -87.3225 50° Northeast  Level FlightAware Approximate